Adventure of The Seas — C6SA3 — position and weather

sailwx.info

Track history (hours):
 
Tides and Currents Weather Stations Pressure Air Temp Water Temp Dewpoint Dewpoint Depression Visibility Wind Speed Wind Dir Waves Ship Positions

Adventure of The Seas

Operator: Royal Caribbean Cruises Ltd

Last reported at 2017-Oct-17 00:30 UTC. Time now 2017-Oct-22 15:34 UTC.
Position N 16°53' W 062°33'.

Type: Passenger vessel. MMSI: 311263000.

Date/timePositionNaut miles runAvg speedWind from/ knotsBaromVisibWave heightAir tempDewpointWater temp
2017-Oct-17 00:30N 16°53' W 062°33'814.8
2017-Oct-16 23:57N 16°58' W 062°26'715.0
2017-Oct-16 23:29N 17°01' W 062°20'715.2
2017-Oct-16 23:00N 17°05' W 062°13'714.7
2017-Oct-16 22:30N 17°08' W 062°06'713.1
2017-Oct-16 22:00N 17°10' W 061°60'612.4
2017-Oct-16 21:30N 17°08' W 061°54'3 5.5
2017-Oct-16 21:00N 17°07' W 061°51'0 0.0
2017-Oct-16 20:26N 17°07' W 061°51'0 0.0
2017-Oct-16 19:59N 17°07' W 061°51'0 0.0
2017-Oct-16 19:29N 17°07' W 061°51'0 0.0
2017-Oct-16 18:59N 17°07' W 061°51'0 0.0
2017-Oct-16 18:29N 17°07' W 061°51'0 0.0
2017-Oct-16 17:59N 17°07' W 061°51'0 0.0
2017-Oct-16 17:29N 17°07' W 061°51'0 0.0
2017-Oct-16 16:59N 17°07' W 061°51'0 0.0
2017-Oct-16 16:29N 17°07' W 061°51'0 0.0
2017-Oct-16 15:59N 17°07' W 061°51'0 0.0
2017-Oct-16 15:29N 17°07' W 061°51'0 0.0
2017-Oct-16 14:59N 17°07' W 061°51'0 0.0
2017-Oct-16 13:59N 17°07' W 061°51'0 0.0
2017-Oct-16 13:29N 17°07' W 061°51'0 0.0
2017-Oct-16 12:59N 17°07' W 061°51'0 0.0
2017-Oct-16 12:29N 17°07' W 061°51'0 0.0
2017-Oct-16 11:59N 17°07' W 061°51'1 1.8
2017-Oct-16 11:30N 17°08' W 061°52'5 9.1
2017-Oct-16 11:00N 17°09' W 061°56'611.0
2017-Oct-16 10:30N 17°12' W 062°01'611.4
2017-Oct-16 10:00N 17°15' W 062°06'510.9
2017-Oct-16 09:30N 17°17' W 062°11'510.6
2017-Oct-16 09:00N 17°20' W 062°16'510.4
2017-Oct-16 08:30N 17°22' W 062°21'510.4
2017-Oct-16 08:00N 17°26' W 062°25'510.8
2017-Oct-16 07:30N 17°30' W 062°29'23 1.2
2017-Oct-15 12:02N 17°18' W 062°50'117.9
2017-Oct-15 12:01N 17°18' W 062°50'  
2017-Oct-13 06:24N 14°35' W 061°24'513.8
2017-Oct-13 06:00N 14°32' W 061°19'814.7
2017-Oct-13 05:28N 14°27' W 061°13'714.6
2017-Oct-13 05:00N 14°23' W 061°07'714.8
2017-Oct-13 04:30N 14°18' W 061°01'714.7
2017-Oct-13 04:00N 14°14' W 060°55'814.7
2017-Oct-13 03:29N 14°09' W 060°49'35 0.7
2017-Oct-11 00:00N 14°30' W 061°18'2 4.6
2017-Oct-10 23:30N 14°31' W 061°16'2 4.3
2017-Oct-10 23:00N 14°32' W 061°14'3 4.9
2017-Oct-10 22:29N 14°33' W 061°12'3 5.3
2017-Oct-10 21:51N 14°34' W 061°08'2 5.8
2017-Oct-10 21:27N 14°35' W 061°06'2 4.6
2017-Oct-10 20:59N 14°36' W 061°04'0 0.0
2017-Oct-10 18:23N 14°36' W 061°04'0 0.0
2017-Oct-10 17:14N 14°36' W 061°04'0 0.0
2017-Oct-10 13:56N 14°36' W 061°04'0 0.0
2017-Oct-10 13:26N 14°36' W 061°04'0 0.0
2017-Oct-10 12:59N 14°36' W 061°04'0 0.0
2017-Oct-10 12:29N 14°36' W 061°04'0 0.0
2017-Oct-10 11:47N 14°36' W 061°04'0 0.1
2017-Oct-10 11:30N 14°36' W 061°04'4 7.7
2017-Oct-10 11:00N 14°37' W 061°08'10913.0
2017-Oct-10 02:38N 16°11' W 062°05'213.4
2017-Oct-10 02:30N 16°13' W 062°05'613.3
2017-Oct-10 02:01N 16°19' W 062°05'713.4
2017-Oct-10 01:30N 16°26' W 062°06'713.4
2017-Oct-10 01:01N 16°32' W 062°05'713.3
2017-Oct-10 00:31N 16°39' W 062°04'713.4
2017-Oct-10 00:01N 16°46' W 062°03'713.5
2017-Oct-09 23:30N 16°52' W 062°02'713.7
2017-Oct-09 23:00N 16°59' W 062°01'612.8
2017-Oct-09 22:31N 17°06' W 062°00'510.5
2017-Oct-09 22:00N 17°09' W 061°57'5 9.9
2017-Oct-09 21:31N 17°08' W 061°52'1 1.6
2017-Oct-09 20:59N 17°07' W 061°51'0 0.0
2017-Oct-09 20:29N 17°07' W 061°51'0 0.0
2017-Oct-09 19:59N 17°07' W 061°51'0 0.0
2017-Oct-09 19:29N 17°07' W 061°51'0 0.0
2017-Oct-09 18:59N 17°07' W 061°51'0 0.0
2017-Oct-09 18:29N 17°07' W 061°51'0 0.0
2017-Oct-09 17:59N 17°07' W 061°51'0 0.0
2017-Oct-09 17:29N 17°07' W 061°51'0 0.0
2017-Oct-09 16:59N 17°07' W 061°51'0 0.0
2017-Oct-09 16:29N 17°07' W 061°51'0 0.0
2017-Oct-09 15:59N 17°07' W 061°51'0 0.0
2017-Oct-09 15:29N 17°07' W 061°51'0 0.0
2017-Oct-09 14:59N 17°07' W 061°51'0 0.0
2017-Oct-09 14:29N 17°07' W 061°51'0 0.0
2017-Oct-09 13:59N 17°07' W 061°51'0 0.0
2017-Oct-09 13:29N 17°07' W 061°51'0 0.0
2017-Oct-09 12:59N 17°07' W 061°51'0 0.0
2017-Oct-09 12:29N 17°07' W 061°51'0 0.0
2017-Oct-09 11:59N 17°07' W 061°51'1 1.8
2017-Oct-09 11:31N 17°08' W 061°52'4 8.8
2017-Oct-09 11:01N 17°09' W 061°56'612.1
2017-Oct-09 10:30N 17°12' W 062°02'612.5
2017-Oct-09 10:01N 17°15' W 062°07'612.3
2017-Oct-09 09:31N 17°18' W 062°13'612.0
2017-Oct-09 09:00N 17°21' W 062°19'611.6
2017-Oct-09 08:30N 17°24' W 062°24'5 9.2
2017-Oct-09 08:01N 17°27' W 062°27'5 9.1
2017-Oct-09 07:30N 17°31' W 062°30'5 9.4
2017-Oct-09 07:00N 17°34' W 062°34'  
Track history (hours):
 
Tides and Currents Weather Stations Pressure Air Temp Water Temp Dewpoint Dewpoint Depression Visibility Wind Speed Wind Dir Waves Ship Positions

Adventure of The Seas

Operator: Royal Caribbean Cruises Ltd

Last reported at 2017-Oct-17 00:30 UTC. Time now 2017-Oct-22 15:34 UTC.
Position N 16°53' W 062°33'.

Type: Passenger vessel. MMSI: 311263000.

Date/timePositionNaut miles runAvg speedWind from/ knotsBaromVisibWave heightAir tempDewpointWater temp
2017-Oct-17 00:30N 16°53' W 062°33'814.8
2017-Oct-16 23:57N 16°58' W 062°26'715.0
2017-Oct-16 23:29N 17°01' W 062°20'715.2
2017-Oct-16 23:00N 17°05' W 062°13'714.7
2017-Oct-16 22:30N 17°08' W 062°06'713.1
2017-Oct-16 22:00N 17°10' W 061°60'612.4
2017-Oct-16 21:30N 17°08' W 061°54'3 5.5
2017-Oct-16 21:00N 17°07' W 061°51'0 0.0
2017-Oct-16 20:26N 17°07' W 061°51'0 0.0
2017-Oct-16 19:59N 17°07' W 061°51'0 0.0
2017-Oct-16 19:29N 17°07' W 061°51'0 0.0
2017-Oct-16 18:59N 17°07' W 061°51'0 0.0
2017-Oct-16 18:29N 17°07' W 061°51'0 0.0
2017-Oct-16 17:59N 17°07' W 061°51'0 0.0
2017-Oct-16 17:29N 17°07' W 061°51'0 0.0
2017-Oct-16 16:59N 17°07' W 061°51'0 0.0
2017-Oct-16 16:29N 17°07' W 061°51'0 0.0
2017-Oct-16 15:59N 17°07' W 061°51'0 0.0
2017-Oct-16 15:29N 17°07' W 061°51'0 0.0
2017-Oct-16 14:59N 17°07' W 061°51'0 0.0
2017-Oct-16 13:59N 17°07' W 061°51'0 0.0
2017-Oct-16 13:29N 17°07' W 061°51'0 0.0
2017-Oct-16 12:59N 17°07' W 061°51'0 0.0
2017-Oct-16 12:29N 17°07' W 061°51'0 0.0
2017-Oct-16 11:59N 17°07' W 061°51'1 1.8
2017-Oct-16 11:30N 17°08' W 061°52'5 9.1
2017-Oct-16 11:00N 17°09' W 061°56'611.0
2017-Oct-16 10:30N 17°12' W 062°01'611.4
2017-Oct-16 10:00N 17°15' W 062°06'510.9
2017-Oct-16 09:30N 17°17' W 062°11'510.6
2017-Oct-16 09:00N 17°20' W 062°16'510.4
2017-Oct-16 08:30N 17°22' W 062°21'510.4
2017-Oct-16 08:00N 17°26' W 062°25'510.8
2017-Oct-16 07:30N 17°30' W 062°29'23 1.2
2017-Oct-15 12:02N 17°18' W 062°50'117.9
2017-Oct-15 12:01N 17°18' W 062°50'  
2017-Oct-13 06:24N 14°35' W 061°24'513.8
2017-Oct-13 06:00N 14°32' W 061°19'814.7
2017-Oct-13 05:28N 14°27' W 061°13'714.6
2017-Oct-13 05:00N 14°23' W 061°07'714.8
2017-Oct-13 04:30N 14°18' W 061°01'714.7
2017-Oct-13 04:00N 14°14' W 060°55'814.7
2017-Oct-13 03:29N 14°09' W 060°49'35 0.7
2017-Oct-11 00:00N 14°30' W 061°18'2 4.6
2017-Oct-10 23:30N 14°31' W 061°16'2 4.3
2017-Oct-10 23:00N 14°32' W 061°14'3 4.9
2017-Oct-10 22:29N 14°33' W 061°12'3 5.3
2017-Oct-10 21:51N 14°34' W 061°08'2 5.8
2017-Oct-10 21:27N 14°35' W 061°06'2 4.6
2017-Oct-10 20:59N 14°36' W 061°04'0 0.0
2017-Oct-10 18:23N 14°36' W 061°04'0 0.0
2017-Oct-10 17:14N 14°36' W 061°04'0 0.0
2017-Oct-10 13:56N 14°36' W 061°04'0 0.0
2017-Oct-10 13:26N 14°36' W 061°04'0 0.0
2017-Oct-10 12:59N 14°36' W 061°04'0 0.0
2017-Oct-10 12:29N 14°36' W 061°04'0 0.0
2017-Oct-10 11:47N 14°36' W 061°04'0 0.1
2017-Oct-10 11:30N 14°36' W 061°04'4 7.7
2017-Oct-10 11:00N 14°37' W 061°08'10913.0
2017-Oct-10 02:38N 16°11' W 062°05'213.4
2017-Oct-10 02:30N 16°13' W 062°05'613.3
2017-Oct-10 02:01N 16°19' W 062°05'713.4
2017-Oct-10 01:30N 16°26' W 062°06'713.4
2017-Oct-10 01:01N 16°32' W 062°05'713.3
2017-Oct-10 00:31N 16°39' W 062°04'713.4
2017-Oct-10 00:01N 16°46' W 062°03'713.5
2017-Oct-09 23:30N 16°52' W 062°02'713.7
2017-Oct-09 23:00N 16°59' W 062°01'612.8
2017-Oct-09 22:31N 17°06' W 062°00'510.5
2017-Oct-09 22:00N 17°09' W 061°57'5 9.9
2017-Oct-09 21:31N 17°08' W 061°52'1 1.6
2017-Oct-09 20:59N 17°07' W 061°51'0 0.0
2017-Oct-09 20:29N 17°07' W 061°51'0 0.0
2017-Oct-09 19:59N 17°07' W 061°51'0 0.0
2017-Oct-09 19:29N 17°07' W 061°51'0 0.0
2017-Oct-09 18:59N 17°07' W 061°51'0 0.0
2017-Oct-09 18:29N 17°07' W 061°51'0 0.0
2017-Oct-09 17:59N 17°07' W 061°51'0 0.0
2017-Oct-09 17:29N 17°07' W 061°51'0 0.0
2017-Oct-09 16:59N 17°07' W 061°51'0 0.0
2017-Oct-09 16:29N 17°07' W 061°51'0 0.0
2017-Oct-09 15:59N 17°07' W 061°51'0 0.0
2017-Oct-09 15:29N 17°07' W 061°51'0 0.0
2017-Oct-09 14:59N 17°07' W 061°51'0 0.0
2017-Oct-09 14:29N 17°07' W 061°51'0 0.0
2017-Oct-09 13:59N 17°07' W 061°51'0 0.0
2017-Oct-09 13:29N 17°07' W 061°51'0 0.0
2017-Oct-09 12:59N 17°07' W 061°51'0 0.0
2017-Oct-09 12:29N 17°07' W 061°51'0 0.0
2017-Oct-09 11:59N 17°07' W 061°51'1 1.8
2017-Oct-09 11:31N 17°08' W 061°52'4 8.8
2017-Oct-09 11:01N 17°09' W 061°56'612.1
2017-Oct-09 10:30N 17°12' W 062°02'612.5
2017-Oct-09 10:01N 17°15' W 062°07'612.3
2017-Oct-09 09:31N 17°18' W 062°13'612.0
2017-Oct-09 09:00N 17°21' W 062°19'611.6
2017-Oct-09 08:30N 17°24' W 062°24'5 9.2
2017-Oct-09 08:01N 17°27' W 062°27'5 9.1
2017-Oct-09 07:30N 17°31' W 062°30'5 9.4
2017-Oct-09 07:00N 17°34' W 062°34'  

Dump ship's entire track history